createdAt,value
2022-12-25T00:07:04.287Z,2.73
2022-12-25T00:15:27.766Z,2.69
2022-12-25T00:23:58.465Z,2.68
2022-12-25T00:32:21.536Z,2.58
2022-12-25T00:40:44.632Z,2.58
2022-12-25T00:49:07.536Z,2.64
2022-12-25T00:57:30.863Z,2.59
2022-12-25T01:06:03.730Z,2.57
2022-12-25T01:14:26.627Z,2.57
2022-12-25T01:22:49.530Z,2.50
2022-12-25T01:31:15.437Z,2.59
2022-12-25T01:39:38.508Z,2.63
2022-12-25T01:48:06.193Z,2.62
2022-12-25T01:56:30.379Z,2.72
2022-12-25T02:05:08.502Z,2.69
2022-12-25T02:13:32.195Z,2.62
2022-12-25T02:22:26.440Z,2.68
2022-12-25T02:30:54.935Z,2.73
2022-12-25T02:39:58.089Z,2.64
2022-12-25T02:48:43.351Z,2.64
2022-12-25T02:57:29.795Z,2.65
2022-12-25T03:06:16.054Z,2.52
2022-12-25T03:14:58.217Z,2.51
2022-12-25T03:23:44.422Z,2.51
2022-12-25T03:32:10.321Z,2.43
2022-12-25T03:41:01.545Z,2.51
2022-12-25T03:49:50.325Z,2.52
2022-12-25T03:58:40.774Z,2.46
2022-12-25T04:07:33.019Z,2.50
2022-12-25T04:16:14.902Z,2.44
2022-12-25T04:24:56.697Z,2.43
2022-12-25T04:33:38.341Z,2.46
2022-12-25T04:42:01.419Z,2.44
2022-12-25T04:50:25.043Z,2.40
2022-12-25T04:58:48.514Z,2.44
2022-12-25T05:07:11.451Z,2.49
2022-12-25T05:15:34.452Z,2.48
2022-12-25T05:23:57.565Z,2.48
2022-12-25T05:32:20.463Z,2.47
2022-12-25T05:40:43.385Z,2.41
2022-12-25T05:49:06.478Z,2.46
2022-12-25T05:57:30.452Z,2.50
2022-12-25T06:05:53.790Z,2.44
2022-12-25T06:14:16.777Z,2.50
2022-12-25T06:22:40.615Z,2.59
2022-12-25T06:31:09.457Z,2.63
2022-12-25T06:39:32.899Z,2.70
2022-12-25T06:47:55.858Z,2.75
2022-12-25T06:56:22.877Z,2.72
2022-12-25T07:04:46.603Z,2.80
2022-12-25T07:13:09.688Z,2.85
2022-12-25T07:21:33.087Z,2.84
2022-12-25T07:29:55.866Z,2.94
2022-12-25T07:38:18.798Z,3.00
2022-12-25T07:46:41.763Z,3.04
2022-12-25T07:55:05.251Z,3.12
2022-12-25T08:03:28.315Z,3.17
2022-12-25T08:11:52.082Z,3.17
2022-12-25T08:20:15.061Z,3.28
2022-12-25T08:28:40.752Z,3.33
2022-12-25T08:37:06.524Z,3.41
2022-12-25T08:45:41.033Z,3.62
2022-12-25T08:54:18.039Z,3.71
2022-12-25T09:02:48.998Z,3.69
2022-12-25T09:11:14.547Z,3.77
2022-12-25T09:19:37.440Z,3.91
2022-12-25T09:28:00.485Z,4.07
2022-12-25T09:36:24.122Z,4.21
2022-12-25T09:44:55.354Z,4.36
2022-12-25T09:53:46.481Z,4.46
2022-12-25T10:02:39.747Z,4.65
2022-12-25T10:11:27.439Z,4.76
2022-12-25T10:19:59.829Z,4.77
2022-12-25T10:28:38.550Z,4.85
2022-12-25T10:37:19.654Z,4.94
2022-12-25T10:46:02.344Z,5.04
2022-12-25T10:54:57.854Z,5.13
2022-12-25T11:03:27.878Z,5.15
2022-12-25T11:11:50.939Z,5.03
2022-12-25T11:20:17.426Z,5.06
2022-12-25T11:28:45.258Z,5.17
2022-12-25T11:37:22.464Z,5.37
2022-12-25T11:45:55.006Z,5.52
2022-12-25T11:54:28.110Z,5.53
2022-12-25T12:02:58.864Z,5.56
2022-12-25T12:11:35.450Z,5.65
2022-12-25T12:19:59.278Z,5.62
2022-12-25T12:28:29.802Z,5.45
2022-12-25T12:37:07.735Z,5.40
2022-12-25T12:45:34.591Z,5.34
2022-12-25T12:54:21.538Z,5.27
2022-12-25T13:02:51.821Z,5.40
2022-12-25T13:11:24.753Z,5.43
2022-12-25T13:19:55.009Z,5.37
2022-12-25T13:28:25.294Z,5.31
2022-12-25T13:36:48.578Z,5.38
2022-12-25T13:45:14.234Z,5.39
2022-12-25T13:53:37.206Z,5.45
2022-12-25T14:02:00.209Z,5.52
2022-12-25T14:10:27.147Z,5.39
2022-12-25T14:18:56.354Z,5.30
2022-12-25T14:27:25.516Z,5.14
2022-12-25T14:35:49.932Z,4.92
2022-12-25T14:44:33.889Z,4.84
2022-12-25T14:52:58.984Z,4.79
2022-12-25T15:01:31.824Z,4.76
2022-12-25T15:10:18.554Z,4.77
2022-12-25T15:18:41.479Z,4.72
2022-12-25T15:27:05.580Z,4.59
2022-12-25T15:35:29.618Z,4.55
2022-12-25T15:43:52.535Z,4.58
2022-12-25T15:52:17.305Z,4.54
2022-12-25T16:00:40.177Z,4.57
2022-12-25T16:09:03.601Z,4.51
2022-12-25T16:17:26.609Z,4.45
2022-12-25T16:25:50.445Z,4.54
2022-12-25T16:34:13.527Z,4.64
2022-12-25T16:42:38.026Z,4.57
2022-12-25T16:51:01.073Z,4.61
2022-12-25T16:59:23.987Z,4.62
2022-12-25T17:07:47.173Z,4.59
2022-12-25T17:16:19.506Z,4.61
2022-12-25T17:24:42.390Z,4.56
2022-12-25T17:33:05.383Z,4.49
2022-12-25T17:41:28.394Z,4.44
2022-12-25T17:49:51.619Z,4.43
2022-12-25T17:58:14.568Z,4.35
2022-12-25T18:06:37.626Z,4.40
2022-12-25T18:15:00.546Z,4.41
2022-12-25T18:23:24.414Z,4.27
2022-12-25T18:31:48.132Z,4.21
2022-12-25T18:40:11.386Z,4.15
2022-12-25T18:48:35.902Z,4.13
2022-12-25T18:57:03.842Z,4.15
2022-12-25T19:05:31.716Z,4.09
2022-12-25T19:13:54.972Z,4.02
2022-12-25T19:22:18.010Z,4.02
2022-12-25T19:30:41.725Z,4.06
2022-12-25T19:39:06.803Z,4.00
2022-12-25T19:47:29.886Z,3.96
2022-12-25T19:55:53.967Z,3.92
2022-12-25T20:04:20.155Z,3.78
2022-12-25T20:12:44.944Z,3.76
2022-12-25T20:21:12.493Z,3.72
2022-12-25T20:29:35.492Z,3.64
2022-12-25T20:37:58.699Z,3.64
2022-12-25T20:46:21.946Z,3.64
2022-12-25T20:54:45.452Z,3.60
2022-12-25T21:03:09.765Z,3.63
2022-12-25T21:11:33.635Z,3.63
2022-12-25T21:19:57.140Z,3.50
2022-12-25T21:28:20.264Z,3.41
2022-12-25T21:36:44.476Z,3.27
2022-12-25T21:45:08.136Z,3.12
2022-12-25T21:53:33.505Z,3.07
2022-12-25T22:01:57.203Z,3.04
2022-12-25T22:10:20.409Z,2.93
2022-12-25T22:19:02.279Z,2.92
2022-12-25T22:27:26.475Z,2.96
2022-12-25T22:35:49.389Z,2.92
2022-12-25T22:44:17.434Z,3.00
2022-12-25T22:52:42.537Z,3.08
2022-12-25T23:01:09.577Z,3.07
2022-12-25T23:09:32.570Z,3.11
2022-12-25T23:18:14.101Z,3.09
2022-12-25T23:26:37.233Z,3.02
2022-12-25T23:35:00.763Z,3.08
2022-12-25T23:43:24.571Z,3.10
2022-12-25T23:51:47.736Z,3.08
